Time;durP1;ratioP1;P1;durP2;ratioP2;P2;SDS_P1;SDS_P2;PMS_P1;PMS_P2;Temp;Humidity;BMP_temperature;BMP_pressure;BME280_temperature;BME280_humidity;BME280_pressure;Samples;Min_cycle;Max_cycle;Signal;HPM_P1;HPM_P2
2023/10/18 00:01:31;;;;;;;7.25;3.15;;;;;;;;;;5096036;28;20044;-61
2023/10/18 00:03:59;;;;;;;5.93;2.95;;;;;;;;;;5095794;28;20094;-61
2023/10/18 00:06:26;;;;;;;4.43;2.92;;;;;;;;;;5095866;28;20118;-61
2023/10/18 00:09:38;;;;;;;7.72;3.28;;;;;;;;;;5095896;28;20043;-61
2023/10/18 00:11:51;;;;;;;8.63;3.47;;;;;;;;;;5095605;28;20044;-61
2023/10/18 00:14:19;;;;;;;5.65;3.30;;;;;;;;;;5095646;28;20036;-61
2023/10/18 00:16:46;;;;;;;5.82;3.08;;;;;;;;;;5096019;28;20393;-61
2023/10/18 00:19:14;;;;;;;8.63;3.55;;;;;;;;;;5095587;28;20048;-61
2023/10/18 00:21:41;;;;;;;6.57;3.30;;;;;;;;;;5095595;28;20544;-61
2023/10/18 00:24:09;;;;;;;6.45;3.47;;;;;;;;;;5095475;28;20032;-61
2023/10/18 00:26:39;;;;;;;5.93;3.53;;;;;;;;;;5095497;28;20044;-61
2023/10/18 00:29:07;;;;;;;5.38;3.30;;;;;;;;;;5095341;28;20048;-61
2023/10/18 00:31:34;;;;;;;7.43;3.30;;;;;;;;;;5094175;28;20047;-61
2023/10/18 00:34:04;;;;;;;7.70;3.03;;;;;;;;;;5095258;28;20047;-61
2023/10/18 00:36:33;;;;;;;8.80;3.10;;;;;;;;;;5093948;28;20055;-61
2023/10/18 00:39:14;;;;;;;4.60;2.92;;;;;;;;;;5094040;28;20393;-61
2023/10/18 00:41:44;;;;;;;6.70;3.08;;;;;;;;;;5076579;28;20048;-61
2023/10/18 00:44:13;;;;;;;6.45;3.00;;;;;;;;;;5095222;28;20198;-61
2023/10/18 00:46:41;;;;;;;5.28;2.92;;;;;;;;;;5095170;28;20043;-61
2023/10/18 00:49:15;;;;;;;5.13;3.03;;;;;;;;;;5093811;28;20093;-61
2023/10/18 00:51:44;;;;;;;8.02;3.00;;;;;;;;;;5095040;28;20042;-61
2023/10/18 00:54:12;;;;;;;4.68;3.05;;;;;;;;;;5093692;28;20055;-61
2023/10/18 00:56:40;;;;;;;8.00;3.40;;;;;;;;;;5093606;28;20055;-61
2023/10/18 00:59:14;;;;;;;6.43;3.53;;;;;;;;;;5093483;28;20123;-61
2023/10/18 01:01:44;;;;;;;6.55;3.20;;;;;;;;;;5093561;28;20442;-61
2023/10/18 01:04:12;;;;;;;7.03;3.20;;;;;;;;;;5093573;28;20040;-61
2023/10/18 01:06:46;;;;;;;8.73;3.65;;;;;;;;;;5093546;28;20095;-61
2023/10/18 01:09:15;;;;;;;7.30;3.50;;;;;;;;;;5093420;28;20044;-61
2023/10/18 01:11:47;;;;;;;5.97;3.95;;;;;;;;;;5093356;28;20044;-61
2023/10/18 01:14:18;;;;;;;6.53;3.38;;;;;;;;;;5093125;28;20036;-60
2023/10/18 01:16:46;;;;;;;6.43;3.53;;;;;;;;;;5093358;28;20079;-61
2023/10/18 01:19:15;;;;;;;8.10;3.50;;;;;;;;;;5094338;28;20043;-61
2023/10/18 01:21:45;;;;;;;9.18;3.58;;;;;;;;;;5093127;28;20105;-61
2023/10/18 01:24:16;;;;;;;12.10;3.72;;;;;;;;;;5094322;28;20040;-61
2023/10/18 01:26:45;;;;;;;4.70;3.40;;;;;;;;;;5093097;28;20047;-61
2023/10/18 01:29:12;;;;;;;7.28;3.42;;;;;;;;;;5092815;28;20040;-61
2023/10/18 01:31:45;;;;;;;8.65;3.63;;;;;;;;;;5076181;28;20068;-61
2023/10/18 01:34:14;;;;;;;9.40;3.90;;;;;;;;;;5092936;28;20036;-61
2023/10/18 01:36:43;;;;;;;12.70;3.40;;;;;;;;;;5092893;28;20093;-61
2023/10/18 01:39:18;;;;;;;5.72;3.08;;;;;;;;;;5092842;28;20135;-61
2023/10/18 01:41:54;;;;;;;6.30;3.45;;;;;;;;;;5092722;28;20075;-61
2023/10/18 01:44:28;;;;;;;15.10;3.33;;;;;;;;;;5092693;28;20493;-61
2023/10/18 01:46:56;;;;;;;8.30;3.30;;;;;;;;;;5092597;28;20089;-61
2023/10/18 01:49:25;;;;;;;8.15;3.55;;;;;;;;;;5092804;28;20122;-61
2023/10/18 01:51:54;;;;;;;7.50;3.38;;;;;;;;;;5092626;28;20047;-61
2023/10/18 01:54:25;;;;;;;4.85;3.22;;;;;;;;;;5091619;28;20122;-61
2023/10/18 01:56:54;;;;;;;7.38;3.60;;;;;;;;;;5092436;28;20107;-61
2023/10/18 01:59:25;;;;;;;8.18;3.50;;;;;;;;;;5092415;28;20044;-61
2023/10/18 02:01:53;;;;;;;7.28;3.60;;;;;;;;;;5075503;28;20071;-61
2023/10/18 02:04:25;;;;;;;6.57;3.40;;;;;;;;;;5092290;28;20040;-61
2023/10/18 02:07:17;;;;;;;7.47;3.65;;;;;;;;;;5092531;28;20043;-61
2023/10/18 02:09:49;;;;;;;9.25;3.65;;;;;;;;;;5092157;28;20052;-61
2023/10/18 02:12:21;;;;;;;5.88;3.63;;;;;;;;;;5093355;28;20131;-61
2023/10/18 02:14:50;;;;;;;7.50;4.13;;;;;;;;;;5091861;28;20040;-61
2023/10/18 02:17:21;;;;;;;6.25;3.85;;;;;;;;;;5093446;28;20036;-62
2023/10/18 02:19:50;;;;;;;6.75;3.78;;;;;;;;;;5091880;28;20581;-61
2023/10/18 02:22:18;;;;;;;5.55;3.33;;;;;;;;;;5092051;28;20044;-60
2023/10/18 02:24:49;;;;;;;8.95;3.47;;;;;;;;;;5093468;28;20040;-61
2023/10/18 02:27:19;;;;;;;8.93;3.92;;;;;;;;;;5093515;28;20051;-61
2023/10/18 02:29:47;;;;;;;8.80;3.80;;;;;;;;;;5093239;28;20401;-61
2023/10/18 02:32:32;;;;;;;8.38;3.70;;;;;;;;;;5091674;28;20044;-61
2023/10/18 02:35:00;;;;;;;6.65;4.60;;;;;;;;;;5091603;28;20131;-61
2023/10/18 02:37:28;;;;;;;7.05;3.88;;;;;;;;;;5091769;28;20140;-61
2023/10/18 02:40:07;;;;;;;6.22;3.90;;;;;;;;;;5091618;28;20050;-61
2023/10/18 02:42:35;;;;;;;7.15;4.25;;;;;;;;;;5092964;28;20043;-61
2023/10/18 02:45:13;;;;;;;8.68;3.97;;;;;;;;;;5091652;28;20044;-61
2023/10/18 02:47:42;;;;;;;8.82;4.05;;;;;;;;;;5092750;28;20040;-61
2023/10/18 02:50:14;;;;;;;10.57;4.10;;;;;;;;;;5092741;28;20040;-61
2023/10/18 02:52:42;;;;;;;7.70;4.10;;;;;;;;;;5092538;28;20481;-61
2023/10/18 02:55:13;;;;;;;6.78;4.20;;;;;;;;;;5092698;28;20113;-61
2023/10/18 02:57:46;;;;;;;7.90;3.95;;;;;;;;;;5091521;28;20101;-61
2023/10/18 03:00:18;;;;;;;6.25;4.43;;;;;;;;;;5091388;28;20076;-61
2023/10/18 03:02:45;;;;;;;7.57;4.45;;;;;;;;;;5091405;28;20055;-61
2023/10/18 03:05:13;;;;;;;6.22;4.10;;;;;;;;;;5091242;28;20424;-61
2023/10/18 03:07:41;;;;;;;9.60;4.22;;;;;;;;;;5091131;28;20101;-61
2023/10/18 03:10:11;;;;;;;6.80;4.43;;;;;;;;;;5091180;28;20047;-61
2023/10/18 03:12:44;;;;;;;7.50;4.45;;;;;;;;;;5091007;28;20486;-61
2023/10/18 03:15:17;;;;;;;10.45;4.28;;;;;;;;;;5092452;28;20795;-61
2023/10/18 03:17:48;;;;;;;7.93;4.30;;;;;;;;;;5091442;28;20602;-61
2023/10/18 03:20:23;;;;;;;6.65;4.47;;;;;;;;;;5091039;28;20052;-61
2023/10/18 03:22:51;;;;;;;6.97;4.20;;;;;;;;;;5090938;28;20063;-61
2023/10/18 03:25:30;;;;;;;10.25;4.45;;;;;;;;;;5074828;28;20284;-65
2023/10/18 03:27:58;;;;;;;8.10;4.57;;;;;;;;;;5091027;28;20093;-60
2023/10/18 03:30:44;;;;;;;10.18;4.82;;;;;;;;;;5091058;28;20440;-61
2023/10/18 03:33:13;;;;;;;11.45;4.68;;;;;;;;;;5092125;28;20055;-61
2023/10/18 03:35:43;;;;;;;9.20;5.55;;;;;;;;;;5092212;28;20115;-61
2023/10/18 03:38:17;;;;;;;8.43;5.30;;;;;;;;;;5090777;28;20561;-61
2023/10/18 03:40:55;;;;;;;7.45;5.30;;;;;;;;;;5090910;28;20106;-61
2023/10/18 03:43:32;;;;;;;8.90;4.70;;;;;;;;;;5091081;28;20063;-61
2023/10/18 03:46:29;;;;;;;11.27;4.93;;;;;;;;;;5075908;28;20033;-61
2023/10/18 03:49:01;;;;;;;9.48;5.32;;;;;;;;;;5071944;28;20047;-60
2023/10/18 03:51:30;;;;;;;12.88;5.60;;;;;;;;;;5070665;28;20779;-61
2023/10/18 03:54:00;;;;;;;8.13;5.30;;;;;;;;;;5070701;28;20044;-60
2023/10/18 03:56:32;;;;;;;11.38;5.20;;;;;;;;;;5087579;28;20048;-61
2023/10/18 03:59:09;;;;;;;15.75;5.75;;;;;;;;;;5070697;28;20417;-60
2023/10/18 04:01:49;;;;;;;10.52;5.43;;;;;;;;;;5072017;28;20044;-61
2023/10/18 04:04:21;;;;;;;13.60;6.60;;;;;;;;;;5071850;28;20082;-61
2023/10/18 04:06:50;;;;;;;16.52;7.00;;;;;;;;;;5071270;28;20090;-61
2023/10/18 04:09:18;;;;;;;14.15;6.65;;;;;;;;;;5071345;28;20048;-61
2023/10/18 04:11:47;;;;;;;16.42;6.93;;;;;;;;;;5071267;28;20033;-61
2023/10/18 04:14:16;;;;;;;14.40;6.70;;;;;;;;;;5071360;28;20498;-61
2023/10/18 04:16:47;;;;;;;13.75;6.88;;;;;;;;;;5072788;28;20040;-61
2023/10/18 04:19:19;;;;;;;12.55;7.18;;;;;;;;;;5074849;28;20056;-61
2023/10/18 04:21:53;;;;;;;15.32;6.95;;;;;;;;;;5075231;28;20094;-60
2023/10/18 04:24:23;;;;;;;16.30;7.55;;;;;;;;;;5075337;28;20115;-61
2023/10/18 04:26:52;;;;;;;10.50;7.47;;;;;;;;;;5075271;28;20048;-60
2023/10/18 04:29:25;;;;;;;12.38;7.32;;;;;;;;;;5075177;28;20045;-60
2023/10/18 04:31:56;;;;;;;12.13;7.43;;;;;;;;;;5074872;28;20047;-60
2023/10/18 04:34:24;;;;;;;13.35;7.47;;;;;;;;;;5074765;28;20040;-60
2023/10/18 04:36:54;;;;;;;13.40;8.05;;;;;;;;;;5075007;28;20040;-61
2023/10/18 04:39:26;;;;;;;13.38;7.90;;;;;;;;;;5074743;28;20047;-61
2023/10/18 04:41:55;;;;;;;15.80;8.32;;;;;;;;;;5073557;28;20098;-61
2023/10/18 04:44:23;;;;;;;15.32;8.10;;;;;;;;;;5074932;28;20036;-61
2023/10/18 04:46:52;;;;;;;17.38;9.73;;;;;;;;;;5074644;28;20090;-61
2023/10/18 04:49:36;;;;;;;20.67;13.25;;;;;;;;;;5074581;28;20041;-61
2023/10/18 04:52:07;;;;;;;15.60;8.18;;;;;;;;;;5074633;28;20040;-61
2023/10/18 04:54:37;;;;;;;14.70;8.20;;;;;;;;;;5074803;28;20505;-61
2023/10/18 04:57:07;;;;;;;17.13;7.88;;;;;;;;;;5074632;28;20037;-61
2023/10/18 04:59:44;;;;;;;12.05;6.90;;;;;;;;;;5074471;28;20040;-61
2023/10/18 05:02:25;;;;;;;12.70;7.53;;;;;;;;;;5074759;28;20083;-61
2023/10/18 05:04:54;;;;;;;17.05;7.70;;;;;;;;;;5074462;28;20486;-61
2023/10/18 05:07:38;;;;;;;15.45;7.20;;;;;;;;;;5074647;28;20044;-61
2023/10/18 05:10:16;;;;;;;9.25;6.90;;;;;;;;;;5074496;28;20589;-61
2023/10/18 05:13:01;;;;;;;12.95;7.50;;;;;;;;;;5072926;28;20470;-61
2023/10/18 05:15:29;;;;;;;11.55;7.20;;;;;;;;;;5074241;28;20504;-61
2023/10/18 05:18:14;;;;;;;11.70;7.25;;;;;;;;;;5074302;28;20054;-61
2023/10/18 05:20:46;;;;;;;;;;;;;;;;;;5075010;28;20045;-61
2023/10/18 05:23:25;;;;;;;14.13;6.35;;;;;;;;;;5074129;28;19927;-61
2023/10/18 05:26:03;;;;;;;12.55;6.80;;;;;;;;;;5074107;28;20106;-61
2023/10/18 05:28:46;;;;;;;10.30;7.57;;;;;;;;;;5074210;28;20421;-61
2023/10/18 05:31:26;;;;;;;10.50;6.80;;;;;;;;;;5074156;28;20154;-61
2023/10/18 05:34:04;;;;;;;11.10;6.53;;;;;;;;;;5073950;28;20504;-61
2023/10/18 05:36:35;;;;;;;15.48;7.18;;;;;;;;;;5073738;28;20570;-60
2023/10/18 05:39:49;;;;;;;8.88;6.28;;;;;;;;;;5072760;28;20051;-61
2023/10/18 05:42:03;;;;;;;9.32;5.82;;;;;;;;;;5070762;28;20060;-61
2023/10/18 05:44:31;;;;;;;12.02;6.85;;;;;;;;;;5073848;28;20052;-60
2023/10/18 05:46:59;;;;;;;13.32;7.38;;;;;;;;;;5073797;28;20501;-61
2023/10/18 05:49:28;;;;;;;14.55;7.13;;;;;;;;;;5073804;28;20406;-60
2023/10/18 05:54:43;;;;;;;17.65;7.40;;;;;;;;;;5073661;28;20052;-60
2023/10/18 05:57:16;;;;;;;14.63;6.40;;;;;;;;;;5073547;28;20157;-60
2023/10/18 05:59:46;;;;;;;10.00;6.80;;;;;;;;;;5073323;28;20486;-61
2023/10/18 06:02:22;;;;;;;14.68;6.82;;;;;;;;;;5071996;28;20072;-61
2023/10/18 06:04:51;;;;;;;19.20;8.20;;;;;;;;;;5073406;28;20114;-60
2023/10/18 06:07:23;;;;;;;13.63;7.20;;;;;;;;;;5073378;28;20044;-61
2023/10/18 06:12:27;;;;;;;13.93;6.32;;;;;;;;;;5073084;28;20044;-60
2023/10/18 06:14:57;;;;;;;13.43;6.50;;;;;;;;;;5072996;28;20045;-60
2023/10/18 06:20:27;;;;;;;15.13;6.93;;;;;;;;;;5073140;28;20082;-60
2023/10/18 06:25:46;;;;;;;10.88;6.70;;;;;;;;;;5073295;28;20454;-60
2023/10/18 06:28:20;;;;;;;17.77;6.95;;;;;;;;;;5055079;28;20040;-61
2023/10/18 06:30:49;;;;;;;;;;;;;;;;;;5073092;28;20633;-61
2023/10/18 06:33:19;;;;;;;12.77;5.63;;;;;;;;;;5072810;28;19921;-61
2023/10/18 06:35:53;;;;;;;9.32;5.35;;;;;;;;;;5072680;28;20045;-61
2023/10/18 06:38:24;;;;;;;11.85;5.50;;;;;;;;;;5073267;28;20139;-61
2023/10/18 06:43:33;;;;;;;10.23;6.10;;;;;;;;;;5072692;28;20040;-61
2023/10/18 06:46:04;;;;;;;14.10;6.45;;;;;;;;;;5072679;28;20124;-61
2023/10/18 06:48:33;;;;;;;11.90;5.90;;;;;;;;;;5072697;28;20067;-62
2023/10/18 06:51:01;;;;;;;17.38;8.30;;;;;;;;;;5072655;28;20064;-62
2023/10/18 06:53:29;;;;;;;14.85;7.07;;;;;;;;;;5072464;28;20090;-63
2023/10/18 06:55:58;;;;;;;18.40;8.95;;;;;;;;;;5087333;28;20063;-62
2023/10/18 07:01:04;;;;;;;13.82;7.35;;;;;;;;;;5092753;28;20035;-63
2023/10/18 07:03:33;;;;;;;15.80;7.30;;;;;;;;;;5092593;28;20374;-63
2023/10/18 07:06:04;;;;;;;11.38;6.28;;;;;;;;;;5090257;28;20432;-63
2023/10/18 07:08:33;;;;;;;13.63;7.43;;;;;;;;;;5083810;28;20130;-63
2023/10/18 07:11:01;;;;;;;14.73;6.72;;;;;;;;;;5092609;28;20036;-63
2023/10/18 07:13:46;;;;;;;14.88;6.80;;;;;;;;;;5092179;28;20482;-63
2023/10/18 07:21:48;;;;;;;14.45;7.03;;;;;;;;;;5092736;28;20044;-63
2023/10/18 07:24:20;;;;;;;15.38;7.05;;;;;;;;;;5092903;28;20064;-63
2023/10/18 07:26:48;;;;;;;18.17;9.25;;;;;;;;;;5092883;28;20040;-63
2023/10/18 07:29:20;;;;;;;18.85;9.38;;;;;;;;;;5092593;28;20098;-63
2023/10/18 07:31:48;;;;;;;15.15;8.23;;;;;;;;;;5092532;28;20036;-63
2023/10/18 07:34:19;;;;;;;16.48;8.52;;;;;;;;;;5092457;28;20115;-63
2023/10/18 07:36:47;;;;;;;14.63;8.32;;;;;;;;;;5092789;28;20435;-63
2023/10/18 07:39:16;;;;;;;23.05;9.43;;;;;;;;;;5092397;28;20044;-63
2023/10/18 07:41:44;;;;;;;22.52;9.80;;;;;;;;;;5092513;28;20433;-63
2023/10/18 07:44:11;;;;;;;22.00;10.82;;;;;;;;;;5092280;28;20036;-63
2023/10/18 07:46:41;;;;;;;19.98;10.98;;;;;;;;;;5092403;28;20040;-63
2023/10/18 07:49:14;;;;;;;19.17;11.35;;;;;;;;;;5092420;28;20044;-63
2023/10/18 07:51:49;;;;;;;22.42;9.93;;;;;;;;;;5093960;28;20044;-63
2023/10/18 07:54:20;;;;;;;21.00;7.88;;;;;;;;;;5096095;28;20374;-63
2023/10/18 07:56:52;;;;;;;22.10;10.20;;;;;;;;;;5096243;28;20039;-63
2023/10/18 07:59:30;;;;;;;16.92;8.13;;;;;;;;;;5096203;28;20111;-63
2023/10/18 08:04:38;;;;;;;17.90;9.02;;;;;;;;;;5096395;28;20040;-63
2023/10/18 08:07:10;;;;;;;18.05;8.48;;;;;;;;;;5096081;28;20067;-63
2023/10/18 08:09:41;;;;;;;14.88;7.60;;;;;;;;;;5096100;28;20119;-63
2023/10/18 08:14:54;;;;;;;14.45;6.30;;;;;;;;;;5095896;28;20040;-63
2023/10/18 08:17:42;;;;;;;13.05;5.95;;;;;;;;;;5095877;28;20500;-63
2023/10/18 08:22:51;;;;;;;13.70;6.45;;;;;;;;;;5095858;28;20054;-63
2023/10/18 08:25:22;;;;;;;10.23;5.78;;;;;;;;;;5095673;28;20051;-63
2023/10/18 08:27:50;;;;;;;15.80;5.43;;;;;;;;;;5095540;28;20048;-63
2023/10/18 08:31:03;;;;;;;11.88;4.80;;;;;;;;;;5095701;28;20040;-63
2023/10/18 08:33:06;;;;;;;22.35;5.78;;;;;;;;;;5095497;28;20036;-63
2023/10/18 08:35:34;;;;;;;15.48;5.65;;;;;;;;;;5095519;28;20508;-63
2023/10/18 08:38:01;;;;;;;10.70;4.72;;;;;;;;;;5095403;28;20451;-63
2023/10/18 08:43:23;;;;;;;17.63;4.80;;;;;;;;;;5095439;28;20062;-63
2023/10/18 08:45:53;;;;;;;13.25;4.90;;;;;;;;;;5095592;28;20083;-63
2023/10/18 08:48:30;;;;;;;13.23;4.43;;;;;;;;;;5095470;28;20119;-63
2023/10/18 08:50:59;;;;;;;9.73;4.50;;;;;;;;;;5095162;28;20044;-63
2023/10/18 08:53:31;;;;;;;12.07;4.90;;;;;;;;;;5095092;28;20044;-63
2023/10/18 08:55:59;;;;;;;16.63;6.32;;;;;;;;;;5095039;28;20040;-63
2023/10/18 08:58:29;;;;;;;13.57;6.00;;;;;;;;;;5095061;28;20066;-63
2023/10/18 09:03:24;;;;;;;17.77;10.38;;;;;;;;;;5094290;28;20127;-63
2023/10/18 09:06:03;;;;;;;12.48;6.75;;;;;;;;;;5094956;28;20040;-63
2023/10/18 09:08:38;;;;;;;9.60;4.90;;;;;;;;;;5095226;28;20043;-63
2023/10/18 09:11:20;;;;;;;12.48;4.97;;;;;;;;;;5094761;28;20196;-63
2023/10/18 09:16:38;;;;;;;9.02;5.00;;;;;;;;;;5094563;28;20226;-64
2023/10/18 09:19:10;;;;;;;13.38;5.68;;;;;;;;;;5094351;28;20079;-64
2023/10/18 09:22:12;;;;;;;11.30;5.82;;;;;;;;;;5094550;28;20040;-63
2023/10/18 09:24:34;;;;;;;16.27;6.38;;;;;;;;;;5090912;28;20055;-63
2023/10/18 09:27:02;;;;;;;15.65;5.60;;;;;;;;;;5094347;28;20481;-64
2023/10/18 09:29:29;;;;;;;13.13;4.70;;;;;;;;;;5094298;28;20107;-63
2023/10/18 09:32:04;;;;;;;11.90;4.53;;;;;;;;;;5094316;28;20485;-64
2023/10/18 09:34:35;;;;;;;16.42;5.00;;;;;;;;;;5094404;28;20097;-63
2023/10/18 09:37:11;;;;;;;10.98;5.00;;;;;;;;;;5094329;28;20090;-63
2023/10/18 09:39:42;;;;;;;12.35;4.78;;;;;;;;;;5094072;28;20071;-63
2023/10/18 09:42:15;;;;;;;15.75;6.72;;;;;;;;;;5094192;28;20044;-63
2023/10/18 09:44:44;;;;;;;15.27;7.20;;;;;;;;;;5094171;28;20036;-63
2023/10/18 09:47:12;;;;;;;19.38;7.22;;;;;;;;;;5093857;28;20043;-63
2023/10/18 09:49:40;;;;;;;15.00;7.38;;;;;;;;;;5093921;28;20032;-63
2023/10/18 09:52:11;;;;;;;18.30;8.85;;;;;;;;;;5093987;28;20123;-63
2023/10/18 09:54:46;;;;;;;18.67;8.80;;;;;;;;;;5093898;28;20079;-64
2023/10/18 09:57:19;;;;;;;13.30;8.10;;;;;;;;;;5093921;28;20044;-63
2023/10/18 09:59:47;;;;;;;19.13;8.70;;;;;;;;;;5092659;28;20124;-62
2023/10/18 10:02:17;;;;;;;16.67;8.55;;;;;;;;;;5094145;28;20039;-63
2023/10/18 10:04:52;;;;;;;13.90;7.88;;;;;;;;;;5093774;28;20048;-63
2023/10/18 10:07:37;;;;;;;18.85;8.45;;;;;;;;;;5093590;28;20047;-63
2023/10/18 10:10:10;;;;;;;21.20;10.40;;;;;;;;;;5093788;28;20040;-63
2023/10/18 10:12:42;;;;;;;18.42;9.70;;;;;;;;;;5093866;28;20098;-63
2023/10/18 10:15:17;;;;;;;22.95;7.85;;;;;;;;;;5092848;28;20127;-63
2023/10/18 10:17:57;;;;;;;13.50;6.32;;;;;;;;;;5093509;28;20032;-63
2023/10/18 10:20:31;;;;;;;14.80;4.70;;;;;;;;;;5093239;28;20118;-63
2023/10/18 10:23:06;;;;;;;11.00;4.70;;;;;;;;;;5093367;28;20111;-63
2023/10/18 10:25:34;;;;;;;10.88;4.75;;;;;;;;;;5093417;28;20105;-64
2023/10/18 10:29:09;;;;;;;9.57;4.95;;;;;;;;;;5093291;28;20032;-63
2023/10/18 10:31:27;;;;;;;;;;;;;;;;;;5093713;28;20059;-64
2023/10/18 10:34:07;;;;;;;8.20;3.80;;;;;;;;;;5093053;28;20388;-64
2023/10/18 10:36:37;;;;;;;9.30;4.57;;;;;;;;;;5093207;28;20048;-63
2023/10/18 10:39:12;;;;;;;9.38;4.55;;;;;;;;;;5093156;28;20062;-64
2023/10/18 10:41:40;;;;;;;;;;;;;;;;;;5093643;28;20480;-64
2023/10/18 10:44:08;;;;;;;7.35;4.30;;;;;;;;;;5093025;28;20392;-63
2023/10/18 10:46:37;;;;;;;9.63;4.63;;;;;;;;;;5093096;28;20054;-63
2023/10/18 10:49:28;;;;;;;8.48;3.80;;;;;;;;;;5093197;28;20044;-64
2023/10/18 10:51:56;;;;;;;10.23;3.50;;;;;;;;;;5093363;28;20036;-63
2023/10/18 10:54:26;;;;;;;13.05;3.65;;;;;;;;;;5092779;28;20048;-64
2023/10/18 10:56:55;;;;;;;7.63;3.10;;;;;;;;;;5092864;28;20044;-63
2023/10/18 10:59:25;;;;;;;5.88;2.90;;;;;;;;;;5092840;28;20047;-63
2023/10/18 11:04:28;;;;;;;10.70;2.85;;;;;;;;;;5092871;28;20039;-63
2023/10/18 11:07:01;;;;;;;6.25;2.60;;;;;;;;;;5092827;28;20598;-63
2023/10/18 11:09:32;;;;;;;10.48;2.67;;;;;;;;;;5092746;28;20101;-63
2023/10/18 11:12:07;;;;;;;5.22;2.40;;;;;;;;;;5092747;28;20045;-63
2023/10/18 11:14:38;;;;;;;5.47;2.70;;;;;;;;;;5092682;28;20130;-63
2023/10/18 11:19:43;;;;;;;11.10;2.75;;;;;;;;;;5092450;28;20066;-63
2023/10/18 11:22:11;;;;;;;6.70;2.88;;;;;;;;;;5092535;28;20043;-63
2023/10/18 11:24:39;;;;;;;9.23;2.70;;;;;;;;;;5092690;28;20085;-63
2023/10/18 11:27:10;;;;;;;7.65;2.50;;;;;;;;;;5096568;28;20068;-64
2023/10/18 11:29:38;;;;;;;6.35;2.92;;;;;;;;;;5096844;28;20044;-63
2023/10/18 11:32:07;;;;;;;5.70;2.58;;;;;;;;;;5096693;28;20094;-63
2023/10/18 11:34:43;;;;;;;6.63;3.08;;;;;;;;;;5096554;28;20076;-64
2023/10/18 11:37:14;;;;;;;5.25;2.90;;;;;;;;;;5096547;28;20119;-64
2023/10/18 11:39:41;;;;;;;9.73;2.50;;;;;;;;;;5096526;28;20040;-62
2023/10/18 11:42:10;;;;;;;8.63;2.22;;;;;;;;;;5096378;28;20044;-63
2023/10/18 11:44:39;;;;;;;7.28;2.35;;;;;;;;;;5096336;28;20126;-63
2023/10/18 11:47:18;;;;;;;4.03;1.88;;;;;;;;;;5096433;28;20044;-63
2023/10/18 11:49:53;;;;;;;3.08;1.90;;;;;;;;;;5096377;28;20122;-63
2023/10/18 11:52:22;;;;;;;8.30;2.42;;;;;;;;;;5094998;28;20500;-63
2023/10/18 11:54:52;;;;;;;5.13;2.42;;;;;;;;;;5096195;28;20055;-63
2023/10/18 11:57:25;;;;;;;6.93;2.80;;;;;;;;;;5096130;28;20040;-63
2023/10/18 12:00:02;;;;;;;3.80;2.40;;;;;;;;;;5096389;28;20048;-63
2023/10/18 12:02:31;;;;;;;6.75;2.50;;;;;;;;;;5096433;28;20048;-63
2023/10/18 12:04:59;;;;;;;7.32;2.55;;;;;;;;;;5095981;28;20071;-63
2023/10/18 12:07:27;;;;;;;4.32;2.40;;;;;;;;;;5095977;28;20040;-64
2023/10/18 12:09:55;;;;;;;8.40;2.40;;;;;;;;;;5095953;28;20051;-63
2023/10/18 12:12:24;;;;;;;5.40;2.40;;;;;;;;;;5095899;28;20039;-63
2023/10/18 12:14:52;;;;;;;10.65;4.75;;;;;;;;;;5095722;28;20054;-64
2023/10/18 12:17:21;;;;;;;8.80;3.28;;;;;;;;;;5095724;28;20051;-64
2023/10/18 12:19:50;;;;;;;5.22;2.40;;;;;;;;;;5095649;28;20478;-63
2023/10/18 12:22:17;;;;;;;3.83;2.20;;;;;;;;;;5095647;28;20397;-63
2023/10/18 12:24:45;;;;;;;8.60;2.45;;;;;;;;;;5095720;28;20055;-63
2023/10/18 12:27:19;;;;;;;5.20;2.90;;;;;;;;;;5095672;28;20039;-63
2023/10/18 12:29:47;;;;;;;6.18;2.88;;;;;;;;;;5095613;28;20052;-63
2023/10/18 12:32:25;;;;;;;5.65;2.40;;;;;;;;;;5095426;28;20032;-63
2023/10/18 12:35:06;;;;;;;7.50;2.83;;;;;;;;;;5095299;28;20547;-64
2023/10/18 12:37:35;;;;;;;4.35;2.53;;;;;;;;;;5094673;28;20061;-64
2023/10/18 12:40:14;;;;;;;4.10;2.33;;;;;;;;;;5095349;28;20115;-63
2023/10/18 12:42:42;;;;;;;6.10;2.70;;;;;;;;;;5095290;28;20390;-63
2023/10/18 12:45:18;;;;;;;6.57;2.97;;;;;;;;;;5095281;28;20051;-64
2023/10/18 12:47:47;;;;;;;4.40;2.60;;;;;;;;;;5095065;28;20044;-63
2023/10/18 12:50:18;;;;;;;7.65;3.70;;;;;;;;;;5095223;28;20497;-63
2023/10/18 12:52:52;;;;;;;7.90;3.83;;;;;;;;;;5095129;28;20040;-64
2023/10/18 12:55:36;;;;;;;9.23;3.72;;;;;;;;;;5095047;28;20048;-63
2023/10/18 12:58:08;;;;;;;8.45;3.80;;;;;;;;;;5095161;28;20040;-63
2023/10/18 13:00:45;;;;;;;9.90;4.13;;;;;;;;;;5095404;28;20060;-63
2023/10/18 13:05:40;;;;;;;6.75;3.00;;;;;;;;;;5094981;28;20489;-63
2023/10/18 13:08:26;;;;;;;8.13;2.78;;;;;;;;;;5095016;28;20387;-63
2023/10/18 13:11:44;;;;;;;;;;;;;;;;;;5095109;28;20481;-63
2023/10/18 13:13:47;;;;;;;8.85;3.30;;;;;;;;;;5094652;28;19981;-63
2023/10/18 13:16:15;;;;;;;29.65;4.75;;;;;;;;;;5094745;28;20044;-64
2023/10/18 13:18:42;;;;;;;10.85;3.40;;;;;;;;;;5094462;28;20080;-63
2023/10/18 13:21:11;;;;;;;11.50;3.95;;;;;;;;;;5094469;28;20032;-63
2023/10/18 13:23:49;;;;;;;7.97;3.50;;;;;;;;;;5094377;28;20040;-63
2023/10/18 13:26:20;;;;;;;4.72;3.00;;;;;;;;;;5094392;28;20115;-63
2023/10/18 13:28:51;;;;;;;9.35;2.97;;;;;;;;;;5094378;28;20126;-64
2023/10/18 13:31:19;;;;;;;8.77;3.10;;;;;;;;;;5094301;28;20036;-64
2023/10/18 13:33:47;;;;;;;22.77;4.25;;;;;;;;;;5094106;28;20094;-64
2023/10/18 13:36:17;;;;;;;14.35;3.80;;;;;;;;;;5094171;28;20072;-63
2023/10/18 13:38:44;;;;;;;8.25;3.67;;;;;;;;;;5094353;28;20040;-63
2023/10/18 13:41:12;;;;;;;7.20;3.80;;;;;;;;;;5094123;28;20075;-63
2023/10/18 13:43:40;;;;;;;9.38;3.80;;;;;;;;;;5089942;28;20033;-62
2023/10/18 13:46:16;;;;;;;6.43;3.75;;;;;;;;;;5073140;28;20115;-62
2023/10/18 13:48:44;;;;;;;9.68;4.10;;;;;;;;;;5072534;28;20047;-62
2023/10/18 13:51:13;;;;;;;10.18;3.90;;;;;;;;;;5073249;28;20089;-62
2023/10/18 13:53:44;;;;;;;8.80;3.75;;;;;;;;;;5074556;28;20383;-62
2023/10/18 13:56:13;;;;;;;19.00;4.60;;;;;;;;;;5073202;28;20381;-63
2023/10/18 13:58:41;;;;;;;21.95;5.03;;;;;;;;;;5073219;28;20036;-63
2023/10/18 14:01:16;;;;;;;12.35;5.70;;;;;;;;;;5080056;28;20060;-63
2023/10/18 14:03:48;;;;;;;11.82;5.32;;;;;;;;;;5073390;28;20036;-65
2023/10/18 14:06:16;;;;;;;11.27;5.05;;;;;;;;;;5078712;28;20084;-63
2023/10/18 14:08:44;;;;;;;14.57;5.30;;;;;;;;;;5077053;28;20036;-63
2023/10/18 14:11:13;;;;;;;10.82;5.00;;;;;;;;;;5080056;28;20129;-62
2023/10/18 14:13:44;;;;;;;11.45;4.80;;;;;;;;;;5083500;28;20071;-62
2023/10/18 14:16:18;;;;;;;10.18;5.68;;;;;;;;;;5079920;28;20106;-62
2023/10/18 14:18:47;;;;;;;9.18;5.07;;;;;;;;;;5078103;28;20071;-62
2023/10/18 14:21:15;;;;;;;14.55;5.80;;;;;;;;;;5070553;28;20052;-62
2023/10/18 14:23:44;;;;;;;15.50;5.68;;;;;;;;;;5069833;28;20036;-62
2023/10/18 14:26:12;;;;;;;11.73;5.80;;;;;;;;;;5069463;28;20051;-63
2023/10/18 14:28:43;;;;;;;11.88;6.15;;;;;;;;;;5068030;28;20465;-63
2023/10/18 14:31:14;;;;;;;13.55;5.80;;;;;;;;;;5069797;28;20055;-66
2023/10/18 14:33:45;;;;;;;11.82;6.13;;;;;;;;;;5070513;28;20111;-63
2023/10/18 14:36:32;;;;;;;15.95;6.70;;;;;;;;;;5067165;28;20052;-63
2023/10/18 14:39:00;;;;;;;11.90;5.63;;;;;;;;;;5059038;28;20041;-63
2023/10/18 14:41:28;;;;;;;16.35;7.15;;;;;;;;;;5061188;28;20037;-63
2023/10/18 14:44:00;;;;;;;15.25;7.40;;;;;;;;;;5064393;28;20039;-62
2023/10/18 14:46:29;;;;;;;16.00;7.13;;;;;;;;;;5058791;28;20052;-62
2023/10/18 14:48:59;;;;;;;13.57;6.50;;;;;;;;;;5061576;28;20124;-63
2023/10/18 14:51:28;;;;;;;18.35;7.90;;;;;;;;;;5060890;28;20617;-62
2023/10/18 14:53:57;;;;;;;14.73;9.32;;;;;;;;;;5061620;28;20143;-65
2023/10/18 14:56:24;;;;;;;18.65;9.05;;;;;;;;;;5056393;28;20047;-62
2023/10/18 14:58:56;;;;;;;17.20;8.57;;;;;;;;;;5059912;28;20040;-63
2023/10/18 15:01:25;;;;;;;17.90;9.45;;;;;;;;;;5045668;28;20044;-62
2023/10/18 15:03:53;;;;;;;21.92;9.48;;;;;;;;;;5046257;28;20040;-62
2023/10/18 15:06:21;;;;;;;16.67;9.23;;;;;;;;;;5046780;28;20041;-62
2023/10/18 15:08:49;;;;;;;23.10;8.85;;;;;;;;;;5060775;28;20136;-62
2023/10/18 15:11:21;;;;;;;25.75;10.13;;;;;;;;;;5062246;28;20081;-62
2023/10/18 15:13:49;;;;;;;42.03;11.43;;;;;;;;;;5059905;28;20040;-63
2023/10/18 15:16:17;;;;;;;47.42;10.82;;;;;;;;;;5063628;28;20060;-62
2023/10/18 15:18:46;;;;;;;25.48;10.00;;;;;;;;;;5062273;28;20123;-63
2023/10/18 15:21:16;;;;;;;23.05;10.73;;;;;;;;;;5064055;28;20062;-64
2023/10/18 15:23:44;;;;;;;24.15;9.68;;;;;;;;;;5061336;28;20136;-64
2023/10/18 15:26:25;;;;;;;52.45;11.32;;;;;;;;;;5056208;28;20492;-64
2023/10/18 15:28:55;;;;;;;54.63;10.75;;;;;;;;;;5054593;28;20044;-64
2023/10/18 15:31:23;;;;;;;33.67;10.38;;;;;;;;;;5062034;28;20070;-64
2023/10/18 15:33:51;;;;;;;29.60;9.98;;;;;;;;;;5046848;28;20041;-64
2023/10/18 15:36:21;;;;;;;24.00;8.85;;;;;;;;;;5046530;28;20067;-64
2023/10/18 15:38:49;;;;;;;23.65;9.15;;;;;;;;;;5046039;28;20045;-64
2023/10/18 15:41:20;;;;;;;25.10;10.00;;;;;;;;;;5046816;28;20052;-64
2023/10/18 15:43:53;;;;;;;21.08;9.30;;;;;;;;;;5046435;28;20037;-64
2023/10/18 15:46:47;;;;;;;50.63;13.63;;;;;;;;;;5055899;28;20444;-64
2023/10/18 15:49:15;;;;;;;25.65;12.52;;;;;;;;;;5045544;28;20057;-64